Terminal Aerodrome Forecast
Issued by NWS Wilmington, OH

Current Version | Previous Version | Text Only | Print | Product List | Glossary Off
Versions: 1 2 3 4 5 6 7 8 9 10 11 12 13 14 15 16 17 18 19 20 21 22 23 24 25

272
FTUS41 KILN 251736 CCA
TAFCVG
TAF COR
KCVG 251736Z 2518/2624 20014KT P6SM BKN130
     FM260000 16006KT P6SM BKN090
     FM260100 16005KT P6SM VCSH BKN130
     FM260500 16006KT 6SM -SHRA BR OVC090
     FM261800 20008KT 4SM -SHRA BR OVC025
     FM262300 21007KT P6SM BKN025=

USA.gov is the U.S. government's official web portal to all federal, state and local government web resources and services.